createdAt,value
2019-01-15T00:00:43.453Z,101028.67
2019-01-15T00:03:12.931Z,101022.81
2019-01-15T00:05:42.399Z,101039.05
2019-01-15T00:08:11.903Z,101033.55
2019-01-15T00:10:41.380Z,101046.13
2019-01-15T00:13:10.884Z,101042.22
2019-01-15T00:15:40.389Z,101041.11
2019-01-15T00:18:09.864Z,101045.75
2019-01-15T00:20:39.375Z,101047.95
2019-01-15T00:23:10.485Z,101052.34
2019-01-15T00:25:40.002Z,101047.09
2019-01-15T00:28:09.509Z,101042.09
2019-01-15T00:30:39.093Z,101036.59
2019-01-15T00:33:08.598Z,101043.33
2019-01-15T00:35:38.106Z,101041.12
2019-01-15T00:38:07.603Z,101041.61
2019-01-15T00:40:37.105Z,101039.16
2019-01-15T00:43:06.586Z,101039.52
2019-01-15T00:45:36.181Z,101039.03
2019-01-15T00:48:05.629Z,101037.34
2019-01-15T00:50:35.145Z,101043.56
2019-01-15T00:53:04.709Z,101044.89
2019-01-15T00:55:34.210Z,101055.16
2019-01-15T00:58:03.709Z,101048.43
2019-01-15T01:00:33.221Z,101047.59
2019-01-15T01:03:02.822Z,101052.22
2019-01-15T01:05:32.291Z,101046.61
2019-01-15T01:08:01.860Z,101061.25
2019-01-15T01:10:31.343Z,101063.45
2019-01-15T01:13:01.227Z,101068.94
2019-01-15T01:15:30.767Z,101072.46
2019-01-15T01:18:00.677Z,101073.45
2019-01-15T01:20:30.155Z,101073.58
2019-01-15T01:22:59.703Z,101061.98
2019-01-15T01:25:29.159Z,101066.87
2019-01-15T01:27:58.635Z,101060.16
2019-01-15T01:30:28.475Z,101065.52
2019-01-15T01:32:57.945Z,101065.64
2019-01-15T01:35:27.438Z,101066.98
2019-01-15T01:37:56.917Z,101063.20
2019-01-15T01:40:26.415Z,101065.89
2019-01-15T01:42:55.876Z,101056.86
2019-01-15T01:45:25.372Z,101061.98
2019-01-15T01:47:54.863Z,101065.62
2019-01-15T01:50:24.361Z,101059.66
2019-01-15T01:52:53.968Z,101064.05
2019-01-15T01:55:23.605Z,101058.55
2019-01-15T01:57:53.078Z,101062.08
2019-01-15T02:00:22.944Z,101050.00
2019-01-15T02:02:52.892Z,101055.13
2019-01-15T02:05:25.781Z,101049.03
2019-01-15T02:07:55.490Z,101047.80
2019-01-15T02:10:24.952Z,101047.08
2019-01-15T02:12:54.731Z,101037.94
2019-01-15T02:15:25.972Z,101047.70
2019-01-15T02:17:55.832Z,101041.59
2019-01-15T02:20:25.410Z,101043.80
2019-01-15T02:22:55.009Z,101040.25
2019-01-15T02:25:24.506Z,101033.67
2019-01-15T02:27:54.338Z,101042.09
2019-01-15T02:30:25.980Z,101038.53
2019-01-15T02:32:55.501Z,101035.62
2019-01-15T02:35:25.049Z,101032.70
2019-01-15T02:37:57.582Z,101036.13
2019-01-15T02:40:27.060Z,101036.23
2019-01-15T02:42:56.547Z,101028.78
2019-01-15T02:45:26.089Z,101026.72
2019-01-15T02:47:55.573Z,101026.48
2019-01-15T02:50:25.147Z,101023.55
2019-01-15T02:52:55.037Z,101027.33
2019-01-15T02:55:24.518Z,101021.96
2019-01-15T02:57:54.334Z,101020.98
2019-01-15T03:00:43.862Z,101028.31
2019-01-15T03:03:13.305Z,101029.41
2019-01-15T03:05:42.913Z,101030.14
2019-01-15T03:08:13.050Z,101029.04
2019-01-15T03:10:42.625Z,101027.80
2019-01-15T03:13:12.224Z,101024.15
2019-01-15T03:15:42.264Z,101024.14
2019-01-15T03:18:11.921Z,101025.26
2019-01-15T03:20:41.379Z,101023.16
2019-01-15T03:23:12.027Z,101017.33
2019-01-15T03:25:41.544Z,101031.59
2019-01-15T03:28:11.241Z,101038.44
2019-01-15T03:30:41.265Z,101031.48
2019-01-15T03:33:10.799Z,101040.15
2019-01-15T03:35:40.352Z,101029.89
2019-01-15T03:38:10.686Z,101028.91
2019-01-15T03:40:40.627Z,101014.73
2019-01-15T03:43:10.213Z,101020.97
2019-01-15T03:45:39.749Z,101011.30
2019-01-15T03:48:09.369Z,101014.45
2019-01-15T03:50:38.843Z,101010.20
2019-01-15T03:53:09.103Z,101004.02
2019-01-15T03:55:38.697Z,100996.78
2019-01-15T03:58:08.176Z,100984.80
2019-01-15T04:00:37.676Z,100993.24
2019-01-15T04:03:07.163Z,100998.65
2019-01-15T04:05:36.662Z,100981.80
2019-01-15T04:08:06.377Z,100981.94
2019-01-15T04:10:36.318Z,100988.98
2019-01-15T04:13:11.198Z,100989.63
2019-01-15T04:15:37.558Z,100995.10
2019-01-15T04:18:07.170Z,100984.74
2019-01-15T04:20:36.854Z,100997.66
2019-01-15T04:23:06.369Z,100992.78
2019-01-15T04:25:37.273Z,100986.70
2019-01-15T04:28:06.975Z,100988.62
2019-01-15T04:30:36.488Z,100991.67
2019-01-15T04:33:05.968Z,100981.55
2019-01-15T04:35:35.466Z,100978.00
2019-01-15T04:38:05.118Z,100980.80
2019-01-15T04:40:34.580Z,100979.09
2019-01-15T04:43:04.045Z,100973.73
2019-01-15T04:45:33.547Z,100960.31
2019-01-15T04:48:03.115Z,100960.95
2019-01-15T04:50:32.612Z,100961.15
2019-01-15T04:53:02.404Z,100966.30
2019-01-15T04:55:32.138Z,100946.52
2019-01-15T04:58:01.626Z,100946.13
2019-01-15T05:00:31.392Z,100941.16
2019-01-15T05:03:00.956Z,100947.00
2019-01-15T05:05:30.448Z,100948.58
2019-01-15T05:07:59.962Z,100940.66
2019-01-15T05:10:29.468Z,100939.81
2019-01-15T05:12:58.920Z,100931.19
2019-01-15T05:15:28.407Z,100923.34
2019-01-15T05:17:57.906Z,100926.25
2019-01-15T05:20:27.393Z,100925.88
2019-01-15T05:22:57.144Z,100925.52
2019-01-15T05:25:26.646Z,100916.49
2019-01-15T05:27:56.110Z,100920.50
2019-01-15T05:30:28.493Z,100919.16
2019-01-15T05:32:57.993Z,100907.33
2019-01-15T05:35:27.478Z,100919.41
2019-01-15T05:37:56.962Z,100910.50
2019-01-15T05:40:26.456Z,100894.99
2019-01-15T05:42:56.022Z,100900.14
2019-01-15T05:45:27.342Z,100891.37
2019-01-15T05:47:58.461Z,100888.05
2019-01-15T05:50:32.464Z,100886.25
2019-01-15T05:53:02.010Z,100876.85
2019-01-15T05:55:31.452Z,100881.70
2019-01-15T05:58:00.947Z,100865.45
2019-01-15T06:00:31.034Z,100863.11
2019-01-15T06:03:00.511Z,100864.33
2019-01-15T06:05:29.973Z,100881.02
2019-01-15T06:07:59.510Z,100889.92
2019-01-15T06:10:28.984Z,100878.14
2019-01-15T06:12:58.455Z,100875.52
2019-01-15T06:15:27.957Z,100875.80
2019-01-15T06:17:57.442Z,100868.50
2019-01-15T06:20:26.922Z,100854.80
2019-01-15T06:22:56.551Z,100849.11
2019-01-15T06:25:26.040Z,100846.64
2019-01-15T06:27:55.542Z,100847.63
2019-01-15T06:30:25.538Z,100849.12
2019-01-15T06:32:55.018Z,100854.22
2019-01-15T06:35:24.514Z,100848.27
2019-01-15T06:37:54.009Z,100849.84
2019-01-15T06:40:23.516Z,100859.88
2019-01-15T06:42:53.022Z,100848.42
2019-01-15T06:45:29.081Z,100863.97
2019-01-15T06:47:58.873Z,100856.82
2019-01-15T06:50:28.351Z,100857.61
2019-01-15T06:52:57.873Z,100860.74
2019-01-15T06:55:27.410Z,100877.41
2019-01-15T06:57:56.921Z,100871.33
2019-01-15T07:00:29.732Z,100871.81
2019-01-15T07:03:00.079Z,100870.14
2019-01-15T07:05:29.630Z,100878.59
2019-01-15T07:07:59.205Z,100879.48
2019-01-15T07:10:38.029Z,100878.77
2019-01-15T07:13:07.679Z,100876.52
2019-01-15T07:15:37.151Z,100881.78
2019-01-15T07:18:06.781Z,100879.23
2019-01-15T07:20:36.262Z,100871.53
2019-01-15T07:23:06.035Z,100876.58
2019-01-15T07:25:35.547Z,100863.02
2019-01-15T07:28:05.617Z,100875.35
2019-01-15T07:30:42.682Z,100875.92
2019-01-15T07:33:12.247Z,100884.70
2019-01-15T07:35:41.745Z,100881.84
2019-01-15T07:38:11.204Z,100883.00
2019-01-15T07:40:40.723Z,100873.39
2019-01-15T07:43:10.221Z,100879.78
2019-01-15T07:45:39.705Z,100880.52
2019-01-15T07:48:09.684Z,100887.14
2019-01-15T07:50:39.198Z,100887.13
2019-01-15T07:53:28.143Z,100881.42
2019-01-15T07:55:57.648Z,100897.98
2019-01-15T07:58:27.123Z,100894.98
2019-01-15T08:00:56.664Z,100888.94
2019-01-15T08:03:26.579Z,100883.19
2019-01-15T08:05:56.051Z,100883.45
2019-01-15T08:08:25.919Z,100891.81
2019-01-15T08:10:57.140Z,100892.50
2019-01-15T08:13:26.644Z,100886.01
2019-01-15T08:15:56.514Z,100890.30
2019-01-15T08:18:26.249Z,100891.61
2019-01-15T08:20:55.809Z,100889.24
2019-01-15T08:23:25.336Z,100890.49
2019-01-15T08:25:54.843Z,100895.77
2019-01-15T08:28:24.322Z,100886.73
2019-01-15T08:31:13.302Z,100886.30
2019-01-15T08:33:43.243Z,100871.15
2019-01-15T08:36:12.733Z,100875.09
2019-01-15T08:38:42.332Z,100875.32
2019-01-15T08:41:11.835Z,100877.06
2019-01-15T08:43:41.328Z,100859.31
2019-01-15T08:46:10.825Z,100866.56
2019-01-15T08:48:40.889Z,100872.41
2019-01-15T08:51:10.903Z,100881.91
2019-01-15T08:53:41.077Z,100878.77
2019-01-15T08:56:11.057Z,100874.72
2019-01-15T08:58:40.517Z,100879.28
2019-01-15T09:01:10.047Z,100869.57
2019-01-15T09:03:39.534Z,100863.92
2019-01-15T09:06:09.021Z,100862.69
2019-01-15T09:08:38.527Z,100851.48
2019-01-15T09:11:08.029Z,100856.17
2019-01-15T09:13:37.619Z,100870.05
2019-01-15T09:16:07.663Z,100867.23
2019-01-15T09:18:37.168Z,100861.19
2019-01-15T09:21:06.674Z,100866.72
2019-01-15T09:23:36.196Z,100866.53
2019-01-15T09:26:05.757Z,100865.55
2019-01-15T09:28:35.258Z,100865.68
2019-01-15T09:31:04.863Z,100847.41
2019-01-15T09:33:34.372Z,100856.77
2019-01-15T09:36:03.884Z,100860.16
2019-01-15T09:38:33.483Z,100858.52
2019-01-15T09:41:02.974Z,100864.44
2019-01-15T09:43:32.526Z,100857.03
2019-01-15T09:46:02.077Z,100860.16
2019-01-15T09:48:31.636Z,100851.39
2019-01-15T09:51:01.105Z,100848.23
2019-01-15T09:53:30.642Z,100845.87
2019-01-15T09:56:00.134Z,100844.05
2019-01-15T09:58:29.636Z,100842.44
2019-01-15T10:00:59.945Z,100845.84
2019-01-15T10:03:29.454Z,100854.33
2019-01-15T10:05:59.004Z,100848.94
2019-01-15T10:08:28.541Z,100845.74
2019-01-15T10:10:58.036Z,100850.10
2019-01-15T10:13:27.510Z,100846.14
2019-01-15T10:15:56.994Z,100847.91
2019-01-15T10:18:26.498Z,100842.12
2019-01-15T10:20:55.983Z,100833.59
2019-01-15T10:23:25.975Z,100831.64
2019-01-15T10:25:55.474Z,100827.80
2019-01-15T10:28:24.983Z,100824.97
2019-01-15T10:31:15.645Z,100825.95
2019-01-15T10:33:49.837Z,100809.03
2019-01-15T10:36:17.769Z,100808.73
2019-01-15T10:38:47.376Z,100815.15
2019-01-15T10:41:16.912Z,100807.38
2019-01-15T10:43:46.421Z,100801.69
2019-01-15T10:46:15.947Z,100798.11
2019-01-15T10:48:45.456Z,100800.25
2019-01-15T10:51:14.962Z,100790.83
2019-01-15T10:53:44.516Z,100792.60
2019-01-15T10:56:13.988Z,100788.84
2019-01-15T10:58:43.554Z,100786.15
2019-01-15T11:01:13.602Z,100780.69
2019-01-15T11:03:43.202Z,100779.27
2019-01-15T11:06:12.775Z,100773.32
2019-01-15T11:08:42.294Z,100764.39
2019-01-15T11:11:11.772Z,100751.92
2019-01-15T11:13:41.286Z,100747.95
2019-01-15T11:16:10.812Z,100741.07
2019-01-15T11:18:40.326Z,100745.53
2019-01-15T11:21:09.869Z,100739.28
2019-01-15T11:23:39.577Z,100738.59
2019-01-15T11:26:09.225Z,100729.25
2019-01-15T11:28:38.728Z,100738.17
2019-01-15T11:31:08.310Z,100721.91
2019-01-15T11:33:37.777Z,100711.55
2019-01-15T11:36:07.287Z,100719.70
2019-01-15T11:38:36.797Z,100715.02
2019-01-15T11:41:06.404Z,100719.57
2019-01-15T11:43:35.908Z,100705.97
2019-01-15T11:46:06.468Z,100701.85
2019-01-15T11:48:35.964Z,100687.39
2019-01-15T11:51:05.470Z,100684.25
2019-01-15T11:53:34.968Z,100688.15
2019-01-15T11:56:04.529Z,100695.06
2019-01-15T11:58:34.515Z,100690.31
2019-01-15T12:01:05.754Z,100687.50
2019-01-15T12:03:36.899Z,100686.33
2019-01-15T12:06:26.326Z,100672.77
2019-01-15T12:08:55.583Z,100685.63
2019-01-15T12:11:26.848Z,100672.23
2019-01-15T12:13:57.998Z,100661.59
2019-01-15T12:16:47.438Z,100659.44
2019-01-15T12:19:18.577Z,100658.86
2019-01-15T12:21:56.727Z,100664.70
2019-01-15T12:24:26.073Z,100652.12
2019-01-15T12:26:57.189Z,100649.16
2019-01-15T12:29:28.330Z,100653.51
2019-01-15T12:32:02.134Z,100645.17
2019-01-15T12:34:33.259Z,100648.75
2019-01-15T12:37:19.477Z,100638.22
2019-01-15T12:40:06.620Z,100643.68
2019-01-15T12:42:38.058Z,100637.57
2019-01-15T12:45:22.409Z,100626.19
2019-01-15T12:47:57.687Z,100632.58
2019-01-15T12:50:34.733Z,100619.84
2019-01-15T12:53:04.031Z,100623.34
2019-01-15T12:55:35.173Z,100626.61
2019-01-15T12:58:13.137Z,100617.34
2019-01-15T13:00:59.550Z,100616.77
2019-01-15T13:03:30.734Z,100610.09
2019-01-15T13:06:07.894Z,100605.88
2019-01-15T13:08:39.051Z,100597.09
2019-01-15T13:11:26.304Z,100590.59
2019-01-15T13:14:09.942Z,100594.70
2019-01-15T13:16:41.085Z,100600.03
2019-01-15T13:19:12.197Z,100596.02
2019-01-15T13:21:55.294Z,100592.55
2019-01-15T13:24:35.382Z,100584.98
2019-01-15T13:27:23.037Z,100595.41
2019-01-15T13:30:00.052Z,100592.55
2019-01-15T13:32:34.446Z,100590.70
2019-01-15T13:35:22.589Z,100596.80
2019-01-15T13:37:53.728Z,100596.48
2019-01-15T13:40:24.874Z,100591.72
2019-01-15T13:43:08.161Z,100584.73
2019-01-15T13:45:48.231Z,100593.55
2019-01-15T13:48:28.445Z,100589.27
2019-01-15T13:51:11.335Z,100587.34
2019-01-15T13:54:00.794Z,100591.05
2019-01-15T13:56:34.935Z,100598.52
2019-01-15T13:59:06.144Z,100587.27
2019-01-15T14:01:55.442Z,100594.48
2019-01-15T14:04:31.977Z,100593.27
2019-01-15T14:07:15.364Z,100591.66
2019-01-15T14:09:44.583Z,100582.34
2019-01-15T14:12:16.878Z,100589.23
2019-01-15T14:15:03.047Z,100578.20
2019-01-15T14:17:32.305Z,100578.86
2019-01-15T14:20:19.465Z,100567.07
2019-01-15T14:22:59.356Z,100568.50
2019-01-15T14:25:30.688Z,100565.27
2019-01-15T14:28:07.486Z,100566.95
2019-01-15T14:30:54.369Z,100565.22
2019-01-15T14:33:28.153Z,100559.06
2019-01-15T14:35:59.292Z,100561.41
2019-01-15T14:38:38.933Z,100561.06
2019-01-15T14:41:26.314Z,100579.30
2019-01-15T14:44:01.609Z,100560.06
2019-01-15T14:46:47.952Z,100559.29
2019-01-15T14:49:35.930Z,100562.10
2019-01-15T14:52:11.282Z,100563.41
2019-01-15T14:54:40.583Z,100556.47
2019-01-15T14:57:12.167Z,100554.23
2019-01-15T14:59:59.346Z,100554.50
2019-01-15T15:02:31.274Z,100556.66
2019-01-15T15:05:05.404Z,100540.75
2019-01-15T15:07:54.855Z,100543.68
2019-01-15T15:10:29.045Z,100547.15
2019-01-15T15:13:00.175Z,100554.47
2019-01-15T15:15:36.956Z,100535.32
2019-01-15T15:18:17.294Z,100548.15
2019-01-15T15:21:06.868Z,100538.56
2019-01-15T15:23:38.006Z,100525.88
2019-01-15T15:26:09.146Z,100535.97
2019-01-15T15:28:52.024Z,100535.16
2019-01-15T15:31:32.912Z,100532.73
2019-01-15T15:34:13.606Z,100538.17
2019-01-15T15:37:01.038Z,100536.58
2019-01-15T15:39:48.622Z,100537.89
2019-01-15T15:42:22.187Z,100535.09
2019-01-15T15:45:08.078Z,100528.88
2019-01-15T15:47:55.647Z,100544.41
2019-01-15T15:50:39.591Z,100529.34
2019-01-15T15:53:22.646Z,100532.23
2019-01-15T15:55:59.630Z,100527.30
2019-01-15T15:58:42.686Z,100524.22
2019-01-15T16:01:29.683Z,100519.02
2019-01-15T16:04:03.569Z,100521.02
2019-01-15T16:06:37.532Z,100524.95
2019-01-15T16:09:18.633Z,100524.48
2019-01-15T16:11:52.433Z,100531.66
2019-01-15T16:14:35.421Z,100533.62
2019-01-15T16:17:12.378Z,100540.87
2019-01-15T16:19:59.554Z,100524.63
2019-01-15T16:22:43.051Z,100532.91
2019-01-15T16:25:24.306Z,100539.05
2019-01-15T16:27:57.919Z,100537.78
2019-01-15T16:30:44.261Z,100533.43
2019-01-15T16:33:33.226Z,100540.45
2019-01-15T16:36:16.316Z,100529.66
2019-01-15T16:38:53.606Z,100535.97
2019-01-15T16:41:41.094Z,100531.94
2019-01-15T16:44:28.588Z,100528.93
2019-01-15T16:47:05.639Z,100529.09
2019-01-15T16:49:52.537Z,100522.53
2019-01-15T16:52:39.438Z,100531.72
2019-01-15T16:55:31.839Z,100519.98
2019-01-15T16:58:08.960Z,100521.24
2019-01-15T17:00:42.774Z,100529.34
2019-01-15T17:03:16.604Z,100524.23
2019-01-15T17:05:53.289Z,100536.06
2019-01-15T17:08:40.750Z,100527.67
2019-01-15T17:11:14.979Z,100536.75
2019-01-15T17:13:49.098Z,100532.70
2019-01-15T17:16:18.336Z,100525.91
2019-01-15T17:18:52.514Z,100521.93
2019-01-15T17:21:29.316Z,100527.70
2019-01-15T17:24:09.369Z,100532.92
2019-01-15T17:26:49.094Z,100524.08
2019-01-15T17:29:24.941Z,100533.33
2019-01-15T17:31:56.028Z,100539.79
2019-01-15T17:34:42.623Z,100539.79
2019-01-15T17:37:31.694Z,100531.91
2019-01-15T17:40:11.989Z,100542.05
2019-01-15T17:42:54.980Z,100541.42
2019-01-15T17:45:35.502Z,100532.67
2019-01-15T17:48:07.020Z,100538.72
2019-01-15T17:50:38.574Z,100542.20
2019-01-15T17:53:18.774Z,100540.39
2019-01-15T17:55:55.746Z,100538.78
2019-01-15T17:58:26.957Z,100542.23
2019-01-15T18:01:07.040Z,100544.50
2019-01-15T18:03:44.460Z,100548.36
2019-01-15T18:06:21.781Z,100545.34
2019-01-15T18:08:55.589Z,100547.42
2019-01-15T18:11:42.669Z,100549.55
2019-01-15T18:14:26.665Z,100552.72
2019-01-15T18:17:04.708Z,100551.00
2019-01-15T18:19:41.702Z,100553.28
2019-01-15T18:22:29.214Z,100556.36
2019-01-15T18:25:18.485Z,100549.62
2019-01-15T18:28:01.259Z,100557.94
2019-01-15T18:30:41.969Z,100554.61
2019-01-15T18:33:31.351Z,100562.20
2019-01-15T18:36:18.615Z,100557.62
2019-01-15T18:38:49.712Z,100566.85
2019-01-15T18:41:32.985Z,100567.63
2019-01-15T18:44:19.342Z,100562.92
2019-01-15T18:46:55.904Z,100563.62
2019-01-15T18:49:41.762Z,100565.17
2019-01-15T18:52:13.089Z,100565.59
2019-01-15T18:54:50.241Z,100568.64
2019-01-15T18:57:23.872Z,100563.17
2019-01-15T19:00:06.891Z,100566.09
2019-01-15T19:02:38.077Z,100559.88
2019-01-15T19:05:10.159Z,100565.09
2019-01-15T19:07:45.785Z,100559.82
2019-01-15T19:10:16.921Z,100559.62
2019-01-15T19:12:48.078Z,100567.82
2019-01-15T19:15:37.215Z,100563.59
2019-01-15T19:18:08.556Z,100571.63
2019-01-15T19:20:50.376Z,100570.15
2019-01-15T19:23:37.213Z,100566.74
2019-01-15T19:26:24.790Z,100567.80
2019-01-15T19:28:56.057Z,100555.04
2019-01-15T19:31:45.311Z,100565.39
2019-01-15T19:34:16.423Z,100563.41
2019-01-15T19:36:50.497Z,100564.25
2019-01-15T19:39:24.458Z,100570.13
2019-01-15T19:42:13.709Z,100573.63
2019-01-15T19:44:45.085Z,100571.55
2019-01-15T19:47:34.337Z,100566.16
2019-01-15T19:50:12.884Z,100571.88
2019-01-15T19:52:49.505Z,100576.14
2019-01-15T19:55:32.680Z,100573.41
2019-01-15T19:58:03.875Z,100580.97
2019-01-15T20:00:39.106Z,100579.08
2019-01-15T20:03:18.782Z,100579.16
2019-01-15T20:05:52.652Z,100575.73
2019-01-15T20:08:32.912Z,100578.19
2019-01-15T20:11:20.085Z,100582.95
2019-01-15T20:13:53.247Z,100578.44
2019-01-15T20:16:41.726Z,100585.00
2019-01-15T20:19:21.799Z,100591.84
2019-01-15T20:21:59.070Z,100580.63
2019-01-15T20:24:34.107Z,100574.60
2019-01-15T20:27:16.790Z,100585.59
2019-01-15T20:30:03.890Z,100582.42
2019-01-15T20:32:40.989Z,100591.23
2019-01-15T20:35:23.600Z,100587.95
2019-01-15T20:37:57.259Z,100588.61
2019-01-15T20:40:31.096Z,100589.95
2019-01-15T20:43:05.013Z,100595.42
2019-01-15T20:45:36.206Z,100596.05
2019-01-15T20:48:19.692Z,100591.34
2019-01-15T20:51:05.680Z,100592.66
2019-01-15T20:53:53.591Z,100593.44
2019-01-15T20:56:22.873Z,100592.63
2019-01-15T20:58:56.686Z,100595.64
2019-01-15T21:01:43.162Z,100596.27
2019-01-15T21:04:30.113Z,100594.64
2019-01-15T21:07:05.263Z,100596.95
2019-01-15T21:09:39.601Z,100590.62
2019-01-15T21:12:26.486Z,100587.50
2019-01-15T21:15:13.589Z,100594.32
2019-01-15T21:17:44.733Z,100583.73
2019-01-15T21:20:24.661Z,100597.66
2019-01-15T21:22:55.967Z,100586.00
2019-01-15T21:25:35.850Z,100586.88
2019-01-15T21:28:07.000Z,100593.63
2019-01-15T21:30:54.592Z,100587.07
2019-01-15T21:33:23.863Z,100590.74
2019-01-15T21:35:53.127Z,100591.47
2019-01-15T21:38:30.981Z,100594.47
2019-01-15T21:41:02.124Z,100599.03
2019-01-15T21:43:40.761Z,100597.53
2019-01-15T21:46:12.312Z,100599.56
2019-01-15T21:48:58.327Z,100596.77
2019-01-15T21:51:47.718Z,100595.30
2019-01-15T21:54:29.512Z,100592.25
2019-01-15T21:57:06.322Z,100593.37
2019-01-15T21:59:35.593Z,100593.53
2019-01-15T22:02:13.659Z,100591.72
2019-01-15T22:04:59.424Z,100593.53
2019-01-15T22:07:40.886Z,100601.89
2019-01-15T22:10:12.772Z,100595.55
2019-01-15T22:12:55.614Z,100605.59
2019-01-15T22:15:32.761Z,100606.16
2019-01-15T22:18:03.890Z,100595.80
2019-01-15T22:20:37.935Z,100597.77
2019-01-15T22:23:10.204Z,100600.38
2019-01-15T22:25:57.089Z,100609.36
2019-01-15T22:28:26.662Z,100604.31
2019-01-15T22:31:01.400Z,100605.44
2019-01-15T22:33:41.482Z,100614.47
2019-01-15T22:36:12.662Z,100612.56
2019-01-15T22:38:43.770Z,100607.86
2019-01-15T22:41:32.961Z,100613.88
2019-01-15T22:44:09.741Z,100614.81
2019-01-15T22:46:46.865Z,100617.73
2019-01-15T22:49:29.451Z,100612.53
2019-01-15T22:52:03.277Z,100613.34
2019-01-15T22:54:37.401Z,100614.12
2019-01-15T22:57:17.399Z,100619.91
2019-01-15T22:59:51.348Z,100621.17
2019-01-15T23:02:29.889Z,100621.57
2019-01-15T23:05:01.279Z,100617.39
2019-01-15T23:07:32.424Z,100620.11
2019-01-15T23:10:03.576Z,100627.69
2019-01-15T23:12:49.770Z,100624.00
2019-01-15T23:15:36.999Z,100619.02
2019-01-15T23:18:08.401Z,100614.05
2019-01-15T23:20:56.378Z,100621.65
2019-01-15T23:23:30.168Z,100613.64
2019-01-15T23:26:19.551Z,100617.85
2019-01-15T23:28:53.652Z,100617.51
2019-01-15T23:31:33.725Z,100627.42
2019-01-15T23:34:17.002Z,100626.17
2019-01-15T23:36:51.266Z,100619.95
2019-01-15T23:39:40.018Z,100628.16
2019-01-15T23:42:11.170Z,100619.73
2019-01-15T23:44:42.280Z,100626.17
2019-01-15T23:47:13.438Z,100615.90
2019-01-15T23:49:50.326Z,100622.34
2019-01-15T23:52:39.552Z,100627.42
2019-01-15T23:55:25.497Z,100618.66
2019-01-15T23:57:56.638Z,100626.52
